sensor_id;sensor_type;location;lat;lon;timestamp;temperature;humidity
30206;DHT22;17010;51.306;3.150;2022-11-20T00:01:10;4.70;99.90
30206;DHT22;17010;51.306;3.150;2022-11-20T00:03:36;4.70;99.90
30206;DHT22;17010;51.306;3.150;2022-11-20T00:06:07;4.60;99.90
30206;DHT22;17010;51.306;3.150;2022-11-20T00:08:33;4.60;99.90
30206;DHT22;17010;51.306;3.150;2022-11-20T00:11:07;4.50;99.90
30206;DHT22;17010;51.306;3.150;2022-11-20T00:13:34;4.50;99.90
30206;DHT22;17010;51.306;3.150;2022-11-20T00:16:02;4.50;99.90
30206;DHT22;17010;51.306;3.150;2022-11-20T00:18:28;4.50;99.90
30206;DHT22;17010;51.306;3.150;2022-11-20T00:21:04;4.50;99.90
30206;DHT22;17010;51.306;3.150;2022-11-20T00:23:30;4.50;99.90
30206;DHT22;17010;51.306;3.150;2022-11-20T00:26:00;4.50;99.90
30206;DHT22;17010;51.306;3.150;2022-11-20T00:28:26;4.60;99.90
30206;DHT22;17010;51.306;3.150;2022-11-20T00:30:54;4.50;99.90
30206;DHT22;17010;51.306;3.150;2022-11-20T00:33:25;4.50;99.90
30206;DHT22;17010;51.306;3.150;2022-11-20T00:35:51;4.60;99.90
30206;DHT22;17010;51.306;3.150;2022-11-20T00:38:18;4.70;99.90
30206;DHT22;17010;51.306;3.150;2022-11-20T00:40:44;4.70;99.90
30206;DHT22;17010;51.306;3.150;2022-11-20T00:43:10;4.70;99.90
30206;DHT22;17010;51.306;3.150;2022-11-20T00:45:36;4.80;99.90
30206;DHT22;17010;51.306;3.150;2022-11-20T00:48:02;4.80;99.90
30206;DHT22;17010;51.306;3.150;2022-11-20T00:50:28;4.80;99.90
30206;DHT22;17010;51.306;3.150;2022-11-20T00:52:54;4.90;99.90
30206;DHT22;17010;51.306;3.150;2022-11-20T00:55:20;4.90;99.90
30206;DHT22;17010;51.306;3.150;2022-11-20T00:57:46;5.00;99.90
30206;DHT22;17010;51.306;3.150;2022-11-20T01:00:13;5.00;99.90
30206;DHT22;17010;51.306;3.150;2022-11-20T01:02:39;5.00;99.90
30206;DHT22;17010;51.306;3.150;2022-11-20T01:05:05;5.00;99.90
30206;DHT22;17010;51.306;3.150;2022-11-20T01:07:32;5.00;99.90
30206;DHT22;17010;51.306;3.150;2022-11-20T01:09:58;4.90;99.90
30206;DHT22;17010;51.306;3.150;2022-11-20T01:12:24;5.00;99.90
30206;DHT22;17010;51.306;3.150;2022-11-20T01:14:50;5.00;99.90
30206;DHT22;17010;51.306;3.150;2022-11-20T01:17:16;5.00;99.90
30206;DHT22;17010;51.306;3.150;2022-11-20T01:19:43;5.10;99.90
30206;DHT22;17010;51.306;3.150;2022-11-20T01:22:09;5.10;99.90
30206;DHT22;17010;51.306;3.150;2022-11-20T01:24:35;5.10;99.90
30206;DHT22;17010;51.306;3.150;2022-11-20T01:27:02;5.20;99.90
30206;DHT22;17010;51.306;3.150;2022-11-20T01:29:28;5.10;99.90
30206;DHT22;17010;51.306;3.150;2022-11-20T01:31:54;5.20;99.90
30206;DHT22;17010;51.306;3.150;2022-11-20T01:34:21;5.30;99.90
30206;DHT22;17010;51.306;3.150;2022-11-20T01:36:48;5.30;99.90
30206;DHT22;17010;51.306;3.150;2022-11-20T01:39:20;5.30;99.90
30206;DHT22;17010;51.306;3.150;2022-11-20T01:41:48;5.20;99.90
30206;DHT22;17010;51.306;3.150;2022-11-20T01:45:42;5.30;99.90
30206;DHT22;17010;51.306;3.150;2022-11-20T01:47:35;5.20;99.90
30206;DHT22;17010;51.306;3.150;2022-11-20T01:52:41;5.20;99.90
30206;DHT22;17010;51.306;3.150;2022-11-20T01:55:36;5.20;99.90
30206;DHT22;17010;51.306;3.150;2022-11-20T01:58:03;5.20;99.90
30206;DHT22;17010;51.306;3.150;2022-11-20T02:00:30;5.20;99.90
30206;DHT22;17010;51.306;3.150;2022-11-20T02:02:58;5.20;99.90
30206;DHT22;17010;51.306;3.150;2022-11-20T02:08:16;5.20;99.90
30206;DHT22;17010;51.306;3.150;2022-11-20T02:10:43;5.20;99.90
30206;DHT22;17010;51.306;3.150;2022-11-20T02:13:09;5.20;99.90
30206;DHT22;17010;51.306;3.150;2022-11-20T02:15:54;5.20;99.90
30206;DHT22;17010;51.306;3.150;2022-11-20T02:18:21;5.20;99.90
30206;DHT22;17010;51.306;3.150;2022-11-20T02:20:50;5.20;99.90
30206;DHT22;17010;51.306;3.150;2022-11-20T02:23:32;5.20;99.90
30206;DHT22;17010;51.306;3.150;2022-11-20T02:26:00;5.30;99.90
30206;DHT22;17010;51.306;3.150;2022-11-20T02:28:28;5.30;99.90
30206;DHT22;17010;51.306;3.150;2022-11-20T02:30:54;5.40;99.90
30206;DHT22;17010;51.306;3.150;2022-11-20T02:33:20;5.40;99.90
30206;DHT22;17010;51.306;3.150;2022-11-20T02:35:46;5.40;99.90
30206;DHT22;17010;51.306;3.150;2022-11-20T02:38:13;5.50;99.90
30206;DHT22;17010;51.306;3.150;2022-11-20T02:40:40;5.60;99.90
30206;DHT22;17010;51.306;3.150;2022-11-20T02:43:07;5.60;99.90
30206;DHT22;17010;51.306;3.150;2022-11-20T02:45:33;5.50;99.90
30206;DHT22;17010;51.306;3.150;2022-11-20T02:47:59;5.50;99.90
30206;DHT22;17010;51.306;3.150;2022-11-20T02:50:26;5.40;99.90
30206;DHT22;17010;51.306;3.150;2022-11-20T02:52:52;5.40;99.90
30206;DHT22;17010;51.306;3.150;2022-11-20T02:55:18;5.40;99.90
30206;DHT22;17010;51.306;3.150;2022-11-20T02:57:44;5.40;99.90
30206;DHT22;17010;51.306;3.150;2022-11-20T03:00:11;5.40;99.90
30206;DHT22;17010;51.306;3.150;2022-11-20T03:02:37;5.50;99.90
30206;DHT22;17010;51.306;3.150;2022-11-20T03:05:03;5.60;99.90
30206;DHT22;17010;51.306;3.150;2022-11-20T03:07:30;5.60;99.90
30206;DHT22;17010;51.306;3.150;2022-11-20T03:09:56;5.60;99.90
30206;DHT22;17010;51.306;3.150;2022-11-20T03:12:22;5.60;99.90
30206;DHT22;17010;51.306;3.150;2022-11-20T03:14:48;5.60;99.90
30206;DHT22;17010;51.306;3.150;2022-11-20T03:17:15;5.60;99.90
30206;DHT22;17010;51.306;3.150;2022-11-20T03:19:41;5.60;99.90
30206;DHT22;17010;51.306;3.150;2022-11-20T03:22:07;5.60;99.90
30206;DHT22;17010;51.306;3.150;2022-11-20T03:24:33;5.50;99.90
30206;DHT22;17010;51.306;3.150;2022-11-20T03:27:00;5.50;99.90
30206;DHT22;17010;51.306;3.150;2022-11-20T03:29:26;5.40;99.90
30206;DHT22;17010;51.306;3.150;2022-11-20T03:31:52;5.40;99.90
30206;DHT22;17010;51.306;3.150;2022-11-20T03:34:18;5.40;99.90
30206;DHT22;17010;51.306;3.150;2022-11-20T03:36:44;5.40;99.90
30206;DHT22;17010;51.306;3.150;2022-11-20T03:39:10;5.40;99.90
30206;DHT22;17010;51.306;3.150;2022-11-20T03:41:39;5.40;99.90
30206;DHT22;17010;51.306;3.150;2022-11-20T03:44:07;5.40;99.90
30206;DHT22;17010;51.306;3.150;2022-11-20T03:46:34;5.40;99.90
30206;DHT22;17010;51.306;3.150;2022-11-20T03:49:00;5.40;99.90
30206;DHT22;17010;51.306;3.150;2022-11-20T03:51:28;5.40;99.90
30206;DHT22;17010;51.306;3.150;2022-11-20T03:53:57;5.40;99.90
30206;DHT22;17010;51.306;3.150;2022-11-20T03:56:26;5.50;99.90
30206;DHT22;17010;51.306;3.150;2022-11-20T03:58:52;5.50;99.90
30206;DHT22;17010;51.306;3.150;2022-11-20T04:01:26;5.50;99.90
30206;DHT22;17010;51.306;3.150;2022-11-20T04:03:54;5.50;99.90
30206;DHT22;17010;51.306;3.150;2022-11-20T04:06:25;5.40;99.90
30206;DHT22;17010;51.306;3.150;2022-11-20T04:08:54;5.40;99.90
30206;DHT22;17010;51.306;3.150;2022-11-20T04:11:22;5.30;99.90
30206;DHT22;17010;51.306;3.150;2022-11-20T04:13:50;5.30;99.90
30206;DHT22;17010;51.306;3.150;2022-11-20T04:16:17;5.30;99.90
30206;DHT22;17010;51.306;3.150;2022-11-20T04:18:43;5.20;99.90
30206;DHT22;17010;51.306;3.150;2022-11-20T04:21:10;5.30;99.90
30206;DHT22;17010;51.306;3.150;2022-11-20T04:23:37;5.20;99.90
30206;DHT22;17010;51.306;3.150;2022-11-20T04:26:08;5.20;99.90
30206;DHT22;17010;51.306;3.150;2022-11-20T04:28:35;5.10;99.90
30206;DHT22;17010;51.306;3.150;2022-11-20T04:31:03;5.10;99.90
30206;DHT22;17010;51.306;3.150;2022-11-20T04:33:29;5.00;99.90
30206;DHT22;17010;51.306;3.150;2022-11-20T04:35:59;5.10;99.90
30206;DHT22;17010;51.306;3.150;2022-11-20T04:38:25;5.00;99.90
30206;DHT22;17010;51.306;3.150;2022-11-20T04:40:58;5.00;99.90
30206;DHT22;17010;51.306;3.150;2022-11-20T04:43:25;5.10;99.90
30206;DHT22;17010;51.306;3.150;2022-11-20T04:45:54;5.10;99.90
30206;DHT22;17010;51.306;3.150;2022-11-20T04:48:20;5.10;99.90
30206;DHT22;17010;51.306;3.150;2022-11-20T04:50:46;5.10;99.90
30206;DHT22;17010;51.306;3.150;2022-11-20T04:53:13;5.10;99.90
30206;DHT22;17010;51.306;3.150;2022-11-20T04:55:39;5.10;99.90
30206;DHT22;17010;51.306;3.150;2022-11-20T04:58:05;5.10;99.90
30206;DHT22;17010;51.306;3.150;2022-11-20T05:00:31;5.00;99.90
30206;DHT22;17010;51.306;3.150;2022-11-20T05:02:57;4.90;99.90
30206;DHT22;17010;51.306;3.150;2022-11-20T05:05:23;5.00;99.90
30206;DHT22;17010;51.306;3.150;2022-11-20T05:07:50;5.00;99.90
30206;DHT22;17010;51.306;3.150;2022-11-20T05:10:16;5.00;99.90
30206;DHT22;17010;51.306;3.150;2022-11-20T05:12:42;5.00;99.90
30206;DHT22;17010;51.306;3.150;2022-11-20T05:15:08;5.10;99.90
30206;DHT22;17010;51.306;3.150;2022-11-20T05:17:35;5.10;99.90
30206;DHT22;17010;51.306;3.150;2022-11-20T05:20:01;5.10;99.90
30206;DHT22;17010;51.306;3.150;2022-11-20T05:22:27;5.20;99.90
30206;DHT22;17010;51.306;3.150;2022-11-20T05:24:53;5.30;99.90
30206;DHT22;17010;51.306;3.150;2022-11-20T05:27:20;5.30;99.90
30206;DHT22;17010;51.306;3.150;2022-11-20T05:29:46;5.30;99.90
30206;DHT22;17010;51.306;3.150;2022-11-20T05:32:12;5.30;99.90
30206;DHT22;17010;51.306;3.150;2022-11-20T05:34:38;5.30;99.90
30206;DHT22;17010;51.306;3.150;2022-11-20T05:37:04;5.30;99.90
30206;DHT22;17010;51.306;3.150;2022-11-20T05:39:30;5.40;99.90
30206;DHT22;17010;51.306;3.150;2022-11-20T05:41:56;5.40;99.90
30206;DHT22;17010;51.306;3.150;2022-11-20T05:44:41;5.40;99.90
30206;DHT22;17010;51.306;3.150;2022-11-20T05:47:07;5.40;99.90
30206;DHT22;17010;51.306;3.150;2022-11-20T05:49:33;5.40;99.90
30206;DHT22;17010;51.306;3.150;2022-11-20T05:51:59;5.40;99.90
30206;DHT22;17010;51.306;3.150;2022-11-20T05:54:25;5.40;99.90
30206;DHT22;17010;51.306;3.150;2022-11-20T05:56:51;5.40;99.90
30206;DHT22;17010;51.306;3.150;2022-11-20T05:59:17;5.50;99.90
30206;DHT22;17010;51.306;3.150;2022-11-20T06:01:44;5.50;99.90
30206;DHT22;17010;51.306;3.150;2022-11-20T06:04:10;5.60;99.90
30206;DHT22;17010;51.306;3.150;2022-11-20T06:06:36;5.80;99.90
30206;DHT22;17010;51.306;3.150;2022-11-20T06:09:02;5.90;99.90
30206;DHT22;17010;51.306;3.150;2022-11-20T06:11:28;5.80;99.90
30206;DHT22;17010;51.306;3.150;2022-11-20T06:13:54;5.80;99.90
30206;DHT22;17010;51.306;3.150;2022-11-20T06:16:20;5.80;99.90
30206;DHT22;17010;51.306;3.150;2022-11-20T06:18:47;5.70;99.90
30206;DHT22;17010;51.306;3.150;2022-11-20T06:21:18;5.70;99.90
30206;DHT22;17010;51.306;3.150;2022-11-20T06:23:45;5.80;99.90
30206;DHT22;17010;51.306;3.150;2022-11-20T06:26:22;5.80;99.90
30206;DHT22;17010;51.306;3.150;2022-11-20T06:28:49;5.80;99.90
30206;DHT22;17010;51.306;3.150;2022-11-20T06:31:18;5.80;99.90
30206;DHT22;17010;51.306;3.150;2022-11-20T06:33:44;5.80;99.90
30206;DHT22;17010;51.306;3.150;2022-11-20T06:36:13;5.90;99.90
30206;DHT22;17010;51.306;3.150;2022-11-20T06:38:40;5.90;99.90
30206;DHT22;17010;51.306;3.150;2022-11-20T06:41:07;6.00;99.90
30206;DHT22;17010;51.306;3.150;2022-11-20T06:43:35;6.00;99.90
30206;DHT22;17010;51.306;3.150;2022-11-20T06:46:02;6.00;99.90
30206;DHT22;17010;51.306;3.150;2022-11-20T06:48:28;6.10;99.90
30206;DHT22;17010;51.306;3.150;2022-11-20T06:50:55;6.10;99.90
30206;DHT22;17010;51.306;3.150;2022-11-20T06:53:21;6.10;99.90
30206;DHT22;17010;51.306;3.150;2022-11-20T06:55:48;6.20;99.90
30206;DHT22;17010;51.306;3.150;2022-11-20T06:58:15;6.20;99.90
30206;DHT22;17010;51.306;3.150;2022-11-20T07:00:41;6.20;99.90
30206;DHT22;17010;51.306;3.150;2022-11-20T07:03:10;6.30;99.90
30206;DHT22;17010;51.306;3.150;2022-11-20T07:05:37;6.20;99.90
30206;DHT22;17010;51.306;3.150;2022-11-20T07:08:04;6.20;99.90
30206;DHT22;17010;51.306;3.150;2022-11-20T07:10:31;6.30;99.90
30206;DHT22;17010;51.306;3.150;2022-11-20T07:12:57;6.30;99.90
30206;DHT22;17010;51.306;3.150;2022-11-20T07:15:24;6.30;99.90
30206;DHT22;17010;51.306;3.150;2022-11-20T07:17:51;6.40;99.90
30206;DHT22;17010;51.306;3.150;2022-11-20T07:20:18;6.40;99.90
30206;DHT22;17010;51.306;3.150;2022-11-20T07:22:44;6.40;99.90
30206;DHT22;17010;51.306;3.150;2022-11-20T07:25:10;6.50;99.90
30206;DHT22;17010;51.306;3.150;2022-11-20T07:27:36;6.50;99.90
30206;DHT22;17010;51.306;3.150;2022-11-20T07:30:03;6.60;99.90
30206;DHT22;17010;51.306;3.150;2022-11-20T07:32:29;6.60;99.90
30206;DHT22;17010;51.306;3.150;2022-11-20T07:34:56;6.60;99.90
30206;DHT22;17010;51.306;3.150;2022-11-20T07:37:22;6.60;99.90
30206;DHT22;17010;51.306;3.150;2022-11-20T07:39:48;6.60;99.90
30206;DHT22;17010;51.306;3.150;2022-11-20T07:42:14;6.60;99.90
30206;DHT22;17010;51.306;3.150;2022-11-20T07:44:40;6.70;99.90
30206;DHT22;17010;51.306;3.150;2022-11-20T07:47:06;6.70;99.90
30206;DHT22;17010;51.306;3.150;2022-11-20T07:49:32;6.70;99.90
30206;DHT22;17010;51.306;3.150;2022-11-20T07:51:59;6.70;99.90
30206;DHT22;17010;51.306;3.150;2022-11-20T07:54:25;6.70;99.90
30206;DHT22;17010;51.306;3.150;2022-11-20T07:56:51;6.70;99.90
30206;DHT22;17010;51.306;3.150;2022-11-20T07:59:17;6.80;99.90
30206;DHT22;17010;51.306;3.150;2022-11-20T08:01:43;6.80;99.90
30206;DHT22;17010;51.306;3.150;2022-11-20T08:04:09;6.80;99.90
30206;DHT22;17010;51.306;3.150;2022-11-20T08:06:36;6.80;99.90
30206;DHT22;17010;51.306;3.150;2022-11-20T08:09:02;6.80;99.90
30206;DHT22;17010;51.306;3.150;2022-11-20T08:11:29;6.80;99.90
30206;DHT22;17010;51.306;3.150;2022-11-20T08:14:14;6.80;99.90
30206;DHT22;17010;51.306;3.150;2022-11-20T08:16:41;6.80;99.90
30206;DHT22;17010;51.306;3.150;2022-11-20T08:19:07;6.80;99.90
30206;DHT22;17010;51.306;3.150;2022-11-20T08:21:34;6.90;99.90
30206;DHT22;17010;51.306;3.150;2022-11-20T08:24:00;6.90;99.90
30206;DHT22;17010;51.306;3.150;2022-11-20T08:26:26;6.90;99.90
30206;DHT22;17010;51.306;3.150;2022-11-20T08:28:56;6.90;99.90
30206;DHT22;17010;51.306;3.150;2022-11-20T08:31:24;7.00;99.90
30206;DHT22;17010;51.306;3.150;2022-11-20T08:33:50;7.00;99.90
30206;DHT22;17010;51.306;3.150;2022-11-20T08:36:17;7.00;99.90
30206;DHT22;17010;51.306;3.150;2022-11-20T08:38:48;7.10;99.90
30206;DHT22;17010;51.306;3.150;2022-11-20T08:41:14;7.10;99.90
30206;DHT22;17010;51.306;3.150;2022-11-20T08:43:57;7.10;99.90
30206;DHT22;17010;51.306;3.150;2022-11-20T08:46:25;7.20;99.90
30206;DHT22;17010;51.306;3.150;2022-11-20T08:48:51;7.20;99.90
30206;DHT22;17010;51.306;3.150;2022-11-20T08:51:18;7.30;99.90
30206;DHT22;17010;51.306;3.150;2022-11-20T08:53:45;7.30;99.90
30206;DHT22;17010;51.306;3.150;2022-11-20T08:56:12;7.40;99.90
30206;DHT22;17010;51.306;3.150;2022-11-20T08:58:38;7.40;99.90
30206;DHT22;17010;51.306;3.150;2022-11-20T09:01:04;7.30;99.90
30206;DHT22;17010;51.306;3.150;2022-11-20T09:03:31;7.40;99.90
30206;DHT22;17010;51.306;3.150;2022-11-20T09:05:58;7.40;99.90
30206;DHT22;17010;51.306;3.150;2022-11-20T09:08:25;7.50;99.90
30206;DHT22;17010;51.306;3.150;2022-11-20T09:10:52;7.60;99.90
30206;DHT22;17010;51.306;3.150;2022-11-20T09:13:23;7.50;99.90
30206;DHT22;17010;51.306;3.150;2022-11-20T09:15:54;7.50;99.90
30206;DHT22;17010;51.306;3.150;2022-11-20T09:18:20;7.60;99.90
30206;DHT22;17010;51.306;3.150;2022-11-20T09:20:47;7.70;99.90
30206;DHT22;17010;51.306;3.150;2022-11-20T09:23:14;7.80;99.90
30206;DHT22;17010;51.306;3.150;2022-11-20T09:25:40;7.90;99.90
30206;DHT22;17010;51.306;3.150;2022-11-20T09:28:07;7.90;99.90
30206;DHT22;17010;51.306;3.150;2022-11-20T09:30:33;8.00;99.90
30206;DHT22;17010;51.306;3.150;2022-11-20T09:32:59;8.10;99.90
30206;DHT22;17010;51.306;3.150;2022-11-20T09:35:25;8.20;99.90
30206;DHT22;17010;51.306;3.150;2022-11-20T09:37:51;8.30;99.90
30206;DHT22;17010;51.306;3.150;2022-11-20T09:40:28;8.30;99.90
30206;DHT22;17010;51.306;3.150;2022-11-20T09:43:10;8.30;99.90
30206;DHT22;17010;51.306;3.150;2022-11-20T09:48:53;8.40;99.90
30206;DHT22;17010;51.306;3.150;2022-11-20T09:54:19;8.40;99.90
30206;DHT22;17010;51.306;3.150;2022-11-20T09:57:00;8.50;99.90
30206;DHT22;17010;51.306;3.150;2022-11-20T09:59:51;8.50;99.90
30206;DHT22;17010;51.306;3.150;2022-11-20T10:05:04;8.70;99.90
30206;DHT22;17010;51.306;3.150;2022-11-20T10:13:31;8.90;99.90
30206;DHT22;17010;51.306;3.150;2022-11-20T10:21:55;9.00;99.90
30206;DHT22;17010;51.306;3.150;2022-11-20T10:30:12;9.20;99.90
30206;DHT22;17010;51.306;3.150;2022-11-20T10:32:41;9.30;99.90
30206;DHT22;17010;51.306;3.150;2022-11-20T10:35:16;9.20;99.90
30206;DHT22;17010;51.306;3.150;2022-11-20T10:37:50;9.20;99.90
30206;DHT22;17010;51.306;3.150;2022-11-20T10:40:41;9.30;99.90
30206;DHT22;17010;51.306;3.150;2022-11-20T10:43:09;9.40;99.90
30206;DHT22;17010;51.306;3.150;2022-11-20T10:46:22;9.40;99.90
30206;DHT22;17010;51.306;3.150;2022-11-20T10:48:42;9.50;99.90
30206;DHT22;17010;51.306;3.150;2022-11-20T10:51:18;9.60;99.90
30206;DHT22;17010;51.306;3.150;2022-11-20T10:53:51;9.70;99.90
30206;DHT22;17010;51.306;3.150;2022-11-20T10:59:38;10.00;99.90
30206;DHT22;17010;51.306;3.150;2022-11-20T11:02:20;9.90;99.90
30206;DHT22;17010;51.306;3.150;2022-11-20T11:04:56;9.90;99.90
30206;DHT22;17010;51.306;3.150;2022-11-20T11:07:37;10.00;99.90
30206;DHT22;17010;51.306;3.150;2022-11-20T11:10:16;10.00;99.90
30206;DHT22;17010;51.306;3.150;2022-11-20T11:12:47;9.90;99.90
30206;DHT22;17010;51.306;3.150;2022-11-20T11:15:40;9.90;99.90
30206;DHT22;17010;51.306;3.150;2022-11-20T11:18:10;9.80;99.90
30206;DHT22;17010;51.306;3.150;2022-11-20T11:20:37;9.80;99.90
30206;DHT22;17010;51.306;3.150;2022-11-20T11:23:03;9.70;99.90
30206;DHT22;17010;51.306;3.150;2022-11-20T11:25:34;9.50;99.90
30206;DHT22;17010;51.306;3.150;2022-11-20T11:28:03;9.50;99.90
30206;DHT22;17010;51.306;3.150;2022-11-20T11:30:40;9.40;99.90
30206;DHT22;17010;51.306;3.150;2022-11-20T11:33:10;9.30;99.90
30206;DHT22;17010;51.306;3.150;2022-11-20T11:35:50;9.30;99.90
30206;DHT22;17010;51.306;3.150;2022-11-20T11:38:27;9.20;99.90
30206;DHT22;17010;51.306;3.150;2022-11-20T11:40:54;9.20;99.90
30206;DHT22;17010;51.306;3.150;2022-11-20T11:43:23;9.10;99.90
30206;DHT22;17010;51.306;3.150;2022-11-20T11:54:38;9.00;99.90
30206;DHT22;17010;51.306;3.150;2022-11-20T11:57:12;9.10;99.90
30206;DHT22;17010;51.306;3.150;2022-11-20T12:02:37;9.00;99.90
30206;DHT22;17010;51.306;3.150;2022-11-20T12:05:25;9.00;99.90
30206;DHT22;17010;51.306;3.150;2022-11-20T12:08:23;8.90;99.90
30206;DHT22;17010;51.306;3.150;2022-11-20T12:11:12;8.90;99.90
30206;DHT22;17010;51.306;3.150;2022-11-20T12:13:47;8.80;99.90
30206;DHT22;17010;51.306;3.150;2022-11-20T12:16:16;8.80;99.90
30206;DHT22;17010;51.306;3.150;2022-11-20T12:18:43;8.80;99.90
30206;DHT22;17010;51.306;3.150;2022-11-20T12:23:57;8.90;99.90
30206;DHT22;17010;51.306;3.150;2022-11-20T12:29:16;8.70;99.90
30206;DHT22;17010;51.306;3.150;2022-11-20T12:37:45;8.80;99.90
30206;DHT22;17010;51.306;3.150;2022-11-20T12:40:35;8.80;99.90
30206;DHT22;17010;51.306;3.150;2022-11-20T12:43:13;8.90;99.90
30206;DHT22;17010;51.306;3.150;2022-11-20T12:51:36;8.90;99.90
30206;DHT22;17010;51.306;3.150;2022-11-20T12:54:35;8.90;99.90
30206;DHT22;17010;51.306;3.150;2022-11-20T13:05:24;9.30;99.90
30206;DHT22;17010;51.306;3.150;2022-11-20T13:07:54;9.40;99.90
30206;DHT22;17010;51.306;3.150;2022-11-20T13:10:35;9.50;99.90
30206;DHT22;17010;51.306;3.150;2022-11-20T13:13:14;9.60;99.90
30206;DHT22;17010;51.306;3.150;2022-11-20T13:16:08;9.70;99.90
30206;DHT22;17010;51.306;3.150;2022-11-20T13:18:38;9.70;99.90
30206;DHT22;17010;51.306;3.150;2022-11-20T13:21:20;9.70;99.90
30206;DHT22;17010;51.306;3.150;2022-11-20T13:23:47;9.70;99.90
30206;DHT22;17010;51.306;3.150;2022-11-20T13:26:20;9.60;99.90
30206;DHT22;17010;51.306;3.150;2022-11-20T13:28:59;9.50;99.90
30206;DHT22;17010;51.306;3.150;2022-11-20T13:31:32;9.50;99.90
30206;DHT22;17010;51.306;3.150;2022-11-20T13:33:59;9.50;99.90
30206;DHT22;17010;51.306;3.150;2022-11-20T13:36:27;9.50;99.90
30206;DHT22;17010;51.306;3.150;2022-11-20T13:38:55;9.40;99.90
30206;DHT22;17010;51.306;3.150;2022-11-20T13:41:33;9.40;99.90
30206;DHT22;17010;51.306;3.150;2022-11-20T13:46:43;9.50;99.90
30206;DHT22;17010;51.306;3.150;2022-11-20T13:49:32;9.50;99.90
30206;DHT22;17010;51.306;3.150;2022-11-20T13:52:19;9.60;99.90
30206;DHT22;17010;51.306;3.150;2022-11-20T13:55:05;9.60;99.90
30206;DHT22;17010;51.306;3.150;2022-11-20T13:57:40;9.70;99.90
30206;DHT22;17010;51.306;3.150;2022-11-20T14:00:23;9.80;99.90
30206;DHT22;17010;51.306;3.150;2022-11-20T14:05:34;9.80;99.90
30206;DHT22;17010;51.306;3.150;2022-11-20T14:08:02;9.80;99.90
30206;DHT22;17010;51.306;3.150;2022-11-20T14:10:30;9.80;99.90
30206;DHT22;17010;51.306;3.150;2022-11-20T14:12:56;9.90;99.90
30206;DHT22;17010;51.306;3.150;2022-11-20T14:15:30;9.80;99.90
30206;DHT22;17010;51.306;3.150;2022-11-20T14:18:18;9.80;99.90
30206;DHT22;17010;51.306;3.150;2022-11-20T14:20:45;9.80;99.90
30206;DHT22;17010;51.306;3.150;2022-11-20T14:23:11;9.90;99.90
30206;DHT22;17010;51.306;3.150;2022-11-20T14:25:41;9.90;99.90
30206;DHT22;17010;51.306;3.150;2022-11-20T14:28:11;9.80;99.90
30206;DHT22;17010;51.306;3.150;2022-11-20T14:30:46;9.80;99.90
30206;DHT22;17010;51.306;3.150;2022-11-20T14:33:13;9.80;99.90
30206;DHT22;17010;51.306;3.150;2022-11-20T14:35:48;9.80;99.90
30206;DHT22;17010;51.306;3.150;2022-11-20T14:38:16;9.80;99.90
30206;DHT22;17010;51.306;3.150;2022-11-20T14:40:43;9.80;99.90
30206;DHT22;17010;51.306;3.150;2022-11-20T14:43:23;9.80;99.90
30206;DHT22;17010;51.306;3.150;2022-11-20T14:46:12;9.80;99.90
30206;DHT22;17010;51.306;3.150;2022-11-20T14:48:48;9.80;99.90
30206;DHT22;17010;51.306;3.150;2022-11-20T14:51:38;9.80;99.90
30206;DHT22;17010;51.306;3.150;2022-11-20T14:54:11;9.80;99.90
30206;DHT22;17010;51.306;3.150;2022-11-20T14:56:37;9.80;99.90
30206;DHT22;17010;51.306;3.150;2022-11-20T14:59:04;9.80;99.90
30206;DHT22;17010;51.306;3.150;2022-11-20T15:01:32;9.80;99.90
30206;DHT22;17010;51.306;3.150;2022-11-20T15:04:06;9.80;99.90
30206;DHT22;17010;51.306;3.150;2022-11-20T15:06:33;9.80;99.90
30206;DHT22;17010;51.306;3.150;2022-11-20T15:08:59;9.80;99.90
30206;DHT22;17010;51.306;3.150;2022-11-20T15:11:32;9.80;99.90
30206;DHT22;17010;51.306;3.150;2022-11-20T15:14:04;9.90;99.90
30206;DHT22;17010;51.306;3.150;2022-11-20T15:16:31;9.90;99.90
30206;DHT22;17010;51.306;3.150;2022-11-20T15:18:58;10.00;99.90
30206;DHT22;17010;51.306;3.150;2022-11-20T15:21:24;10.00;99.90
30206;DHT22;17010;51.306;3.150;2022-11-20T15:23:51;10.00;99.90
30206;DHT22;17010;51.306;3.150;2022-11-20T15:26:26;9.90;99.90
30206;DHT22;17010;51.306;3.150;2022-11-20T15:28:53;9.90;99.90
30206;DHT22;17010;51.306;3.150;2022-11-20T15:31:21;9.80;99.90
30206;DHT22;17010;51.306;3.150;2022-11-20T15:33:48;9.80;99.90
30206;DHT22;17010;51.306;3.150;2022-11-20T15:36:15;9.80;99.90
30206;DHT22;17010;51.306;3.150;2022-11-20T15:38:41;9.80;99.90
30206;DHT22;17010;51.306;3.150;2022-11-20T15:41:08;9.80;99.90
30206;DHT22;17010;51.306;3.150;2022-11-20T15:43:34;9.80;99.90
30206;DHT22;17010;51.306;3.150;2022-11-20T15:46:02;9.80;99.90
30206;DHT22;17010;51.306;3.150;2022-11-20T15:48:35;9.90;99.90
30206;DHT22;17010;51.306;3.150;2022-11-20T15:53:38;9.80;99.90
30206;DHT22;17010;51.306;3.150;2022-11-20T15:56:04;9.90;99.90
30206;DHT22;17010;51.306;3.150;2022-11-20T15:58:31;9.80;99.90
30206;DHT22;17010;51.306;3.150;2022-11-20T16:00:57;9.70;99.90
30206;DHT22;17010;51.306;3.150;2022-11-20T16:03:23;9.50;99.90
30206;DHT22;17010;51.306;3.150;2022-11-20T16:05:49;9.30;99.90
30206;DHT22;17010;51.306;3.150;2022-11-20T16:08:16;9.20;99.90
30206;DHT22;17010;51.306;3.150;2022-11-20T16:10:42;9.20;99.90
30206;DHT22;17010;51.306;3.150;2022-11-20T16:13:13;9.20;99.90
30206;DHT22;17010;51.306;3.150;2022-11-20T16:15:59;9.30;99.90
30206;DHT22;17010;51.306;3.150;2022-11-20T16:18:27;9.30;99.90
30206;DHT22;17010;51.306;3.150;2022-11-20T16:20:54;9.30;99.90
30206;DHT22;17010;51.306;3.150;2022-11-20T16:23:20;9.30;99.90
30206;DHT22;17010;51.306;3.150;2022-11-20T16:25:48;9.30;99.90
30206;DHT22;17010;51.306;3.150;2022-11-20T16:28:14;9.30;99.90
30206;DHT22;17010;51.306;3.150;2022-11-20T16:30:40;9.30;99.90
30206;DHT22;17010;51.306;3.150;2022-11-20T16:33:11;9.40;99.90
30206;DHT22;17010;51.306;3.150;2022-11-20T16:35:38;9.40;99.90
30206;DHT22;17010;51.306;3.150;2022-11-20T16:38:04;9.40;99.90
30206;DHT22;17010;51.306;3.150;2022-11-20T16:40:31;9.50;99.90
30206;DHT22;17010;51.306;3.150;2022-11-20T16:42:57;9.50;99.90
30206;DHT22;17010;51.306;3.150;2022-11-20T16:45:23;9.50;99.90
30206;DHT22;17010;51.306;3.150;2022-11-20T16:47:49;9.60;99.90
30206;DHT22;17010;51.306;3.150;2022-11-20T16:50:16;9.60;99.90
30206;DHT22;17010;51.306;3.150;2022-11-20T16:52:42;9.70;99.90
30206;DHT22;17010;51.306;3.150;2022-11-20T16:55:08;9.70;99.90
30206;DHT22;17010;51.306;3.150;2022-11-20T16:57:34;9.70;99.90
30206;DHT22;17010;51.306;3.150;2022-11-20T17:00:00;9.70;99.90
30206;DHT22;17010;51.306;3.150;2022-11-20T17:02:27;9.70;99.90
30206;DHT22;17010;51.306;3.150;2022-11-20T17:04:53;9.70;99.90
30206;DHT22;17010;51.306;3.150;2022-11-20T17:07:19;9.70;99.90
30206;DHT22;17010;51.306;3.150;2022-11-20T17:09:45;9.70;99.90
30206;DHT22;17010;51.306;3.150;2022-11-20T17:12:11;9.70;99.90
30206;DHT22;17010;51.306;3.150;2022-11-20T17:14:37;9.70;99.90
30206;DHT22;17010;51.306;3.150;2022-11-20T17:17:04;9.70;99.90
30206;DHT22;17010;51.306;3.150;2022-11-20T17:19:30;9.60;99.90